Terminal Aerodrome Forecast
Issued by NWS Duluth, MN

Home | Current Version | Previous Version | Text Only | Print | Product List | Glossary On
Versions: 1 2 3 4 5 6 7 8 9 10 11 12 13 14 15
000
FTUS43 KDLH 060500
TAFDLH
TAF
KDLH 060530Z 0606/0706 10007KT P6SM SCT120
     FM060900 08007KT P6SM BKN025
     FM061100 07007KT P6SM VCSH BKN015 OVC030
     FM061700 08010KT P6SM SCT025 OVC050
     FM070300 07008KT P6SM -SHRA BKN035=

USA.gov is the U.S. government's official web portal to all federal, state and local government web resources and services.